RJAAROAH

Guest
Details From RJAA - NARITA INTL
To ROAH - NAHA
Flight Number -
Tags generated
Created
Modified
Stats Distance 876 nm / 1,622 km
Max Altitude 34,000 ft / 10,363 m
Waypoints 13
Social Downloads 2
Likes 0
Share VATSIM

Download

Looking for another format? Having issues loading an existing format? Contact us
Advertisement - Login to hide

Notes

Basic altitude profile: - Ascent Rate: 2500ft/min - Ascent Speed: 250kts - Cruise Altitude: 35000ft - Cruise Speed: 420kts - Descent Rate: 1500ft/min - Descent Speed: 250kts Options: - Use NATs: yes - Use PACOTS: yes - Use low airways: yes - Use high airways: yes

Route

RJAA XA W28 TAPOP G581 ONC ROAH

ID Type Via Altitude Latitude Longitude Leg Dist Tot Dist Heading (true) Name
O RJAA APT - 0 ft / 0 m 35.77655˚ 140.38277˚ - 0 nm - NARITA INTL
XA NDB - 28,000 ft / 8,534 m 34.68882˚ 139.39656˚ 81 nm 81 nm 217° / 216° OSHIMA NDB
SAKIT FIX W28 (AWY-HI) 34,000 ft / 10,363 m 33.86950˚ 138.04114˚ 83 nm 164 nm 234° / 233° -
SAKAK FIX W28 (AWY-HI) 34,000 ft / 10,363 m 33.72008˚ 137.79701˚ 15 nm 179 nm 234° / 234° -
SOPHY FIX W28 (AWY-HI) 34,000 ft / 10,363 m 33.45410˚ 137.36577˚ 26 nm 206 nm 234° / 233° -
TAPOP FIX W28 (AWY-HI) 34,000 ft / 10,363 m 32.66682˚ 136.13246˚ 78 nm 284 nm 233° / 232° -
DEMPA FIX G581 (AWY-HI) 34,000 ft / 10,363 m 32.11131˚ 135.29228˚ 54 nm 338 nm 232° / 232° -
GURAR FIX G581 (AWY-HI) 34,000 ft / 10,363 m 31.23694˚ 133.99742˚ 84 nm 423 nm 232° / 231° -
SABAN FIX G581 (AWY-HI) 34,000 ft / 10,363 m 29.77039˚ 131.88094˚ 140 nm 563 nm 232° / 231° -
POMAS FIX G581 (AWY-HI) 34,000 ft / 10,363 m 28.50411˚ 130.14419˚ 118 nm 682 nm 231° / 230° -
DONAN FIX G581 (AWY-HI) 28,500 ft / 8,687 m 27.85889˚ 129.27178˚ 60 nm 742 nm 230° / 230° -
ONC VOR G581 (AWY-HI) 18,900 ft / 5,761 m 27.43289˚ 128.69897˚ 39 nm 782 nm 230° / 230° ERABU VORTAC
O ROAH APT - 0 ft / 0 m 26.19582˚ 127.64587˚ 93 nm 875 nm 217° / 217° NAHA

Altitude Profile

Advertisement - Login to hide

Weather


0- 5 10 15 20 25 30 35+ Temperature / ° C

Clouds and Precipitation
Forecast for 2017-12-17 00:00 UTC. Updated an hour ago

Ground ~20,000 ft ~40,000 ft Winds

RJAA

Details ICAO RJAA (NRT)
Name NARITA INTL
Region Japan
Timezone Asia/Tokyo (UTC+9.0)
Stats Elevation 141 ft / 43 m (AMSL)
Location 35.776552° 140.382770°
Runways 2
Magnetic Variation 7.406° W

METAR

RJAA 162230Z 31010KT 270V330 9999 FEW030 05/M06 Q1011 WS R34R NOSIG

Decode

TAF

TAF RJAA 161705Z 1618/1800 32006KT 9999 FEW030= TAF RJBB 161705Z 1618/1800 29022KT 9999 FEW025 SCT050

Decode

Departure Runways

ID Width Length Bearing (true) Bearing (mag) Surface Threshold Offset Overrun Length
16L 196 ft / 60 m 7,162 ft / 2,183 m 149.61° 157.02° Asphalt 190 ft / 58 m 0 ft / 0 m
16R 196 ft / 60 m 13,142 ft / 4,006 m 149.61° 157.02° Asphalt 0 ft / 0 m 410 ft / 125 m
34L 196 ft / 60 m 13,142 ft / 4,006 m 329.62° 337.03° Asphalt 0 ft / 0 m 415 ft / 126 m
34R 196 ft / 60 m 7,162 ft / 2,183 m 329.62° 337.03° Asphalt 190 ft / 58 m 0 ft / 0 m

ROAH

Details ICAO ROAH (OKA)
Name NAHA
Region Japan
Timezone Asia/Tokyo (UTC+9.0)
Stats Elevation 12 ft / 4 m (AMSL)
Location 26.195815° 127.645868°
Runways 1
Magnetic Variation 5.230° W

METAR

ROAH 162230Z 02020KT 9999 BKN035 16/09 Q1024

Decode

TAF

TAF ROAH 161707Z 1618/1800 01024KT 9999 FEW025 BKN045 TEMPO 1618/1621 01026G36KT BECMG 1709/1712 04011KT

Decode

Destination Runways

ID Width Length Bearing (true) Bearing (mag) Surface Threshold Offset Overrun Length
18 150 ft / 46 m 9,881 ft / 3,012 m 177.59° 182.82° Asphalt 138 ft / 42 m 640 ft / 195 m
36 150 ft / 46 m 9,881 ft / 3,012 m 357.59° 2.82° Asphalt 0 ft / 0 m 509 ft / 155 m

Approach Navaids

Runway Type Ident Frequency Range Bearing (true) Bearing (mag) Slope Elevation
36 Localiser IOK 110.30 MHz 18 nm / 33 km 356.78° 2.01° - 52 ft / 16 m (AMSL)
36 Glidescope IOK 110.30 MHz 10 nm / 19 km 357.59° 2.82° 2.75° 52 ft / 16 m (AMSL)
36 DME IOK 110.30 MHz 18 nm / 33 km - - - 31 ft / 9 m (AMSL)

Popular Alternatives